createdAt,value
2023-02-27T00:00:20.366Z,98967.41
2023-02-27T00:02:52.903Z,98973.19
2023-02-27T00:05:22.639Z,98976.13
2023-02-27T00:07:54.466Z,98978.56
2023-02-27T00:10:23.671Z,98931.47
2023-02-27T00:12:52.712Z,98955.84
2023-02-27T00:15:23.061Z,98973.56
2023-02-27T00:17:54.123Z,98978.38
2023-02-27T00:20:23.806Z,98948.16
2023-02-27T00:22:54.959Z,98981.16
2023-02-27T00:25:24.236Z,98990.94
2023-02-27T00:27:53.507Z,99017.97
2023-02-27T00:30:22.772Z,98950.81
2023-02-27T00:32:52.073Z,99012.00
2023-02-27T00:35:22.052Z,99026.41
2023-02-27T00:37:52.026Z,99028.09
2023-02-27T00:40:25.944Z,99033.94
2023-02-27T00:45:31.941Z,99023.31
2023-02-27T00:48:09.408Z,99029.59
2023-02-27T00:50:38.623Z,99045.75
2023-02-27T00:53:07.782Z,99048.03
2023-02-27T00:55:39.168Z,99051.53
2023-02-27T00:58:08.602Z,99048.28
2023-02-27T01:00:37.874Z,99004.41
2023-02-27T01:03:12.262Z,99037.22
2023-02-27T01:05:41.625Z,99059.97
2023-02-27T01:08:10.652Z,99020.75
2023-02-27T01:10:44.536Z,99055.25
2023-02-27T01:13:13.741Z,99065.16
2023-02-27T01:15:42.874Z,99045.66
2023-02-27T01:18:18.068Z,99042.34
2023-02-27T01:20:47.323Z,99034.69
2023-02-27T01:23:16.550Z,99050.84
2023-02-27T01:25:48.467Z,99058.41
2023-02-27T01:28:17.666Z,99081.09
2023-02-27T01:30:46.851Z,99071.50
2023-02-27T01:33:17.572Z,99018.81
2023-02-27T01:35:47.022Z,99041.31
2023-02-27T01:38:16.250Z,99065.69
2023-02-27T01:40:47.387Z,99040.22
2023-02-27T01:43:22.695Z,99082.25
2023-02-27T01:45:55.141Z,99080.94
2023-02-27T01:48:28.815Z,99112.16
2023-02-27T01:51:03.356Z,99123.38
2023-02-27T01:53:36.656Z,99116.31
2023-02-27T01:56:19.245Z,99120.06
2023-02-27T01:58:51.297Z,99148.59
2023-02-27T02:01:21.534Z,99125.91
2023-02-27T02:03:56.064Z,99132.66
2023-02-27T02:06:27.401Z,99118.31
2023-02-27T02:08:58.022Z,99173.03
2023-02-27T02:14:10.251Z,99175.31
2023-02-27T02:17:03.727Z,99172.97
2023-02-27T02:19:56.700Z,99170.63
2023-02-27T02:23:04.963Z,99185.81
2023-02-27T02:26:10.421Z,99195.75
2023-02-27T02:29:16.566Z,99161.53
2023-02-27T02:32:23.905Z,99209.47
2023-02-27T02:35:15.847Z,99214.59
2023-02-27T02:38:30.546Z,99206.13
2023-02-27T02:41:12.482Z,99234.66
2023-02-27T02:43:51.052Z,99240.41
2023-02-27T02:46:34.195Z,99208.41
2023-02-27T02:49:11.482Z,99220.41
2023-02-27T02:54:40.905Z,99245.38
2023-02-27T02:57:24.560Z,99244.44
2023-02-27T02:59:59.941Z,99231.09
2023-02-27T03:02:40.399Z,99244.81
2023-02-27T03:05:14.589Z,99250.03
2023-02-27T03:07:48.920Z,99241.09
2023-02-27T03:10:23.065Z,99268.25
2023-02-27T03:12:59.553Z,99249.41
2023-02-27T03:15:40.636Z,99254.56
2023-02-27T03:18:25.876Z,99290.56
2023-02-27T03:21:05.225Z,99270.28
2023-02-27T03:23:39.521Z,99286.56
2023-02-27T03:26:12.887Z,99295.78
2023-02-27T03:29:00.836Z,99296.09
2023-02-27T03:31:35.952Z,99297.47
2023-02-27T03:34:20.565Z,99279.00
2023-02-27T03:37:04.280Z,99313.69
2023-02-27T03:39:41.959Z,99311.13
2023-02-27T03:42:21.205Z,99321.88
2023-02-27T03:45:18.439Z,99338.94
2023-02-27T03:47:48.745Z,99305.38
2023-02-27T03:50:23.892Z,99308.63
2023-02-27T03:52:53.751Z,99337.06
2023-02-27T03:55:35.863Z,99355.81
2023-02-27T03:58:07.807Z,99361.69
2023-02-27T04:00:37.355Z,99358.56
2023-02-27T04:03:08.013Z,99311.41
2023-02-27T04:05:38.758Z,99365.31
2023-02-27T04:08:31.792Z,99393.31
2023-02-27T04:11:26.556Z,99394.09
2023-02-27T04:14:13.031Z,99394.22
2023-02-27T04:16:56.183Z,99343.81
2023-02-27T04:19:46.001Z,99391.00
2023-02-27T04:22:30.115Z,99394.69
2023-02-27T04:25:12.796Z,99392.59
2023-02-27T04:27:59.970Z,99385.91
2023-02-27T04:30:38.282Z,99382.75
2023-02-27T04:35:54.459Z,99415.44
2023-02-27T04:38:31.831Z,99400.53
2023-02-27T04:41:08.120Z,99423.06
2023-02-27T04:43:39.893Z,99411.31
2023-02-27T04:46:15.063Z,99424.47
2023-02-27T04:48:52.988Z,99414.81
2023-02-27T04:51:29.545Z,99418.63
2023-02-27T04:54:04.098Z,99427.91
2023-02-27T04:56:37.017Z,99433.75
2023-02-27T04:59:10.877Z,99456.53
2023-02-27T05:01:45.950Z,99446.97
2023-02-27T05:04:19.460Z,99450.66
2023-02-27T05:07:03.014Z,99437.56
2023-02-27T05:09:37.303Z,99456.78
2023-02-27T05:14:53.038Z,99477.25
2023-02-27T05:17:33.667Z,99459.88
2023-02-27T05:20:04.747Z,99476.31
2023-02-27T05:22:47.278Z,99483.56
2023-02-27T05:25:22.671Z,99491.25
2023-02-27T05:28:04.106Z,99488.03
2023-02-27T05:30:38.827Z,99481.13
2023-02-27T05:33:22.328Z,99481.25
2023-02-27T05:36:00.834Z,99498.16
2023-02-27T05:38:35.541Z,99486.09
2023-02-27T05:41:12.248Z,99492.50
2023-02-27T05:43:48.365Z,99505.78
2023-02-27T05:46:22.848Z,99527.56
2023-02-27T05:49:03.665Z,99531.97
2023-02-27T05:51:37.508Z,99496.69
2023-02-27T05:54:12.259Z,99526.06
2023-02-27T05:56:44.764Z,99523.69
2023-02-27T05:59:25.428Z,99547.25
2023-02-27T06:01:55.364Z,99535.31
2023-02-27T06:04:30.708Z,99535.78
2023-02-27T06:07:01.428Z,99540.78
2023-02-27T06:09:37.109Z,99533.94
2023-02-27T06:12:06.517Z,99550.38
2023-02-27T06:14:35.760Z,99543.94
2023-02-27T06:17:05.141Z,99550.56
2023-02-27T06:19:36.298Z,99548.25
2023-02-27T06:22:10.586Z,99535.19
2023-02-27T06:24:40.605Z,99563.56
2023-02-27T06:27:09.927Z,99555.41
2023-02-27T06:29:44.379Z,99546.41
2023-02-27T06:32:14.933Z,99580.03
2023-02-27T06:34:46.150Z,99579.09
2023-02-27T06:37:15.320Z,99573.06
2023-02-27T06:39:44.553Z,99599.22
2023-02-27T06:42:13.994Z,99590.28
2023-02-27T06:44:43.239Z,99559.97
2023-02-27T06:47:12.625Z,99580.56
2023-02-27T06:49:42.127Z,99597.31
2023-02-27T06:52:13.563Z,99586.13
2023-02-27T06:54:42.853Z,99590.25
2023-02-27T06:57:11.941Z,99583.38
2023-02-27T06:59:41.536Z,99587.97
2023-02-27T07:02:12.240Z,99623.31
2023-02-27T07:04:41.431Z,99619.06
2023-02-27T07:07:32.869Z,99585.88
2023-02-27T07:10:03.744Z,99606.94
2023-02-27T07:12:38.318Z,99598.84
2023-02-27T07:15:08.859Z,99600.06
2023-02-27T07:17:43.137Z,99631.25
2023-02-27T07:20:14.052Z,99631.50
2023-02-27T07:22:55.653Z,99607.03
2023-02-27T07:25:24.769Z,99604.41
2023-02-27T07:27:53.947Z,99583.59
2023-02-27T07:30:23.573Z,99614.88
2023-02-27T07:32:53.622Z,99614.66
2023-02-27T07:35:27.909Z,99634.56
2023-02-27T07:37:59.355Z,99644.53
2023-02-27T07:40:28.948Z,99622.78
2023-02-27T07:42:59.209Z,99652.34
2023-02-27T07:45:29.860Z,99635.59
2023-02-27T07:47:58.884Z,99661.44
2023-02-27T07:50:28.060Z,99656.00
2023-02-27T07:52:59.194Z,99660.69
2023-02-27T07:55:28.467Z,99655.00
2023-02-27T07:57:57.794Z,99674.63
2023-02-27T08:00:29.248Z,99674.88
2023-02-27T08:02:58.616Z,99677.56
2023-02-27T08:05:27.760Z,99658.56
2023-02-27T08:07:59.112Z,99683.72
2023-02-27T08:10:28.303Z,99680.06
2023-02-27T08:12:57.728Z,99689.19
2023-02-27T08:15:26.871Z,99697.78
2023-02-27T08:17:55.981Z,99707.25
2023-02-27T08:20:25.494Z,99689.25
2023-02-27T08:22:54.677Z,99708.56
2023-02-27T08:25:26.200Z,99718.59
2023-02-27T08:27:55.344Z,99717.09
2023-02-27T08:30:24.534Z,99719.47
2023-02-27T08:32:55.305Z,99712.94
2023-02-27T08:35:29.695Z,99705.72
2023-02-27T08:38:03.848Z,99686.56
2023-02-27T08:40:35.393Z,99712.72
2023-02-27T08:43:04.971Z,99671.38
2023-02-27T08:45:34.174Z,99716.72
2023-02-27T08:48:03.405Z,99685.34
2023-02-27T08:50:34.994Z,99721.59
2023-02-27T08:53:04.416Z,99723.19
2023-02-27T08:55:35.404Z,99713.63
2023-02-27T08:58:04.539Z,99734.00
2023-02-27T09:00:34.196Z,99706.19
2023-02-27T09:03:03.642Z,99725.94
2023-02-27T09:05:35.029Z,99719.69
2023-02-27T09:08:04.422Z,99709.00
2023-02-27T09:10:35.879Z,99697.00
2023-02-27T09:13:05.111Z,99727.28
2023-02-27T09:15:37.504Z,99747.16
2023-02-27T09:18:07.422Z,99754.09
2023-02-27T09:20:39.857Z,99744.16
2023-02-27T09:23:09.535Z,99756.25
2023-02-27T09:25:41.938Z,99756.22
2023-02-27T09:28:11.619Z,99770.84
2023-02-27T09:30:40.689Z,99781.22
2023-02-27T09:33:20.236Z,99784.47
2023-02-27T09:35:49.749Z,99776.22
2023-02-27T09:38:19.371Z,99798.69
2023-02-27T09:40:53.254Z,99785.63
2023-02-27T09:43:26.857Z,99796.28
2023-02-27T09:45:57.917Z,99788.84
2023-02-27T09:48:33.652Z,99782.94
2023-02-27T09:51:04.002Z,99790.47
2023-02-27T09:53:39.776Z,99800.47
2023-02-27T09:56:18.894Z,99803.09
2023-02-27T09:58:53.250Z,99750.22
2023-02-27T10:01:25.482Z,99766.53
2023-02-27T10:04:17.999Z,99798.16
2023-02-27T10:06:51.328Z,99805.84
2023-02-27T10:09:37.343Z,99803.97
2023-02-27T10:12:35.449Z,99799.09
2023-02-27T10:15:11.286Z,99808.91
2023-02-27T10:17:48.061Z,99804.59
2023-02-27T10:20:24.208Z,99810.78
2023-02-27T10:22:55.237Z,99818.81
2023-02-27T10:25:31.544Z,99792.34
2023-02-27T10:28:13.619Z,99824.06
2023-02-27T10:30:45.944Z,99779.34
2023-02-27T10:36:12.425Z,99818.94
2023-02-27T10:38:53.359Z,99795.19
2023-02-27T10:41:24.807Z,99836.59
2023-02-27T10:43:59.996Z,99833.28
2023-02-27T10:46:31.412Z,99838.78
2023-02-27T10:49:05.625Z,99818.97
2023-02-27T10:51:38.334Z,99848.88
2023-02-27T10:54:27.807Z,99849.06
2023-02-27T10:56:59.165Z,99847.69
2023-02-27T10:59:33.629Z,99845.28
2023-02-27T11:02:05.717Z,99854.72
2023-02-27T11:04:38.676Z,99862.78
2023-02-27T11:07:11.640Z,99855.38
2023-02-27T11:09:46.067Z,99849.97
2023-02-27T11:12:24.421Z,99864.47
2023-02-27T11:14:56.971Z,99797.44
2023-02-27T11:17:31.282Z,99839.00
2023-02-27T11:20:05.212Z,99879.97
2023-02-27T11:22:34.809Z,99860.47
2023-02-27T11:25:20.606Z,99858.28
2023-02-27T11:27:51.689Z,99855.31
2023-02-27T11:30:31.160Z,99859.47
2023-02-27T11:33:12.890Z,99866.88
2023-02-27T11:35:42.367Z,99865.25
2023-02-27T11:38:23.001Z,99869.53
2023-02-27T11:40:56.480Z,99887.53
2023-02-27T11:43:28.573Z,99881.84
2023-02-27T11:46:10.199Z,99874.00
2023-02-27T11:48:54.793Z,99861.09
2023-02-27T11:51:38.427Z,99867.41
2023-02-27T11:54:17.248Z,99876.16
2023-02-27T11:56:49.526Z,99888.34
2023-02-27T11:59:29.845Z,99879.63
2023-02-27T12:02:12.684Z,99883.78
2023-02-27T12:04:54.090Z,99915.78
2023-02-27T12:07:27.823Z,99917.88
2023-02-27T12:10:06.629Z,99900.56
2023-02-27T12:12:49.125Z,99926.97
2023-02-27T12:15:29.146Z,99925.94
2023-02-27T12:18:07.674Z,99929.75
2023-02-27T12:20:40.601Z,99929.03
2023-02-27T12:23:20.555Z,99946.38
2023-02-27T12:25:54.844Z,99934.91
2023-02-27T12:28:33.202Z,99946.38
2023-02-27T12:31:16.439Z,99934.84
2023-02-27T12:33:55.130Z,99948.78
2023-02-27T12:36:24.578Z,99946.31
2023-02-27T12:38:58.970Z,99960.44
2023-02-27T12:41:48.521Z,99963.72
2023-02-27T12:44:44.334Z,99948.78
2023-02-27T12:53:29.293Z,99905.66
2023-02-27T12:56:05.184Z,99928.78
2023-02-27T12:58:45.026Z,99996.16
2023-02-27T13:01:26.544Z,99984.84
2023-02-27T13:04:01.738Z,99996.72
2023-02-27T13:06:37.282Z,99981.03
2023-02-27T13:09:25.457Z,100006.72
2023-02-27T13:12:04.724Z,99984.84
2023-02-27T13:14:44.294Z,99975.91
2023-02-27T13:17:22.835Z,99983.41
2023-02-27T13:20:00.471Z,99976.31
2023-02-27T13:22:39.693Z,99985.38
2023-02-27T13:25:16.279Z,100011.72
2023-02-27T13:27:49.355Z,100004.28
2023-02-27T13:30:25.788Z,100000.31
2023-02-27T13:33:02.208Z,100023.38
2023-02-27T13:35:40.972Z,100004.78
2023-02-27T13:38:35.431Z,100006.59
2023-02-27T13:41:41.439Z,100016.41
2023-02-27T13:44:43.380Z,100022.59
2023-02-27T13:47:43.092Z,100030.78
2023-02-27T13:50:47.763Z,100030.66
2023-02-27T13:53:24.091Z,100036.84
2023-02-27T13:56:01.007Z,100040.50
2023-02-27T13:58:37.328Z,100002.34
2023-02-27T14:01:07.108Z,100040.84
2023-02-27T14:03:36.400Z,100037.47
2023-02-27T14:06:07.930Z,100023.19
2023-02-27T14:08:50.586Z,100020.31
2023-02-27T14:11:24.647Z,100035.63
2023-02-27T14:14:29.364Z,100052.13
2023-02-27T14:17:03.253Z,100052.97
2023-02-27T14:19:56.478Z,100066.34
2023-02-27T14:22:41.730Z,100062.38
2023-02-27T14:25:21.532Z,100070.50
2023-02-27T14:27:56.942Z,100085.81
2023-02-27T14:30:34.296Z,100073.53
2023-02-27T14:33:14.233Z,100092.28
2023-02-27T14:35:48.140Z,100096.47
2023-02-27T14:38:21.948Z,100063.41
2023-02-27T14:41:06.516Z,100089.28
2023-02-27T14:43:40.700Z,100042.38
2023-02-27T14:46:18.156Z,100095.75
2023-02-27T14:48:54.625Z,100106.09
2023-02-27T14:51:25.308Z,100106.44
2023-02-27T14:54:06.612Z,100092.31
2023-02-27T14:56:36.516Z,100102.16
2023-02-27T14:59:23.007Z,100104.81
2023-02-27T15:01:52.874Z,100119.50
2023-02-27T15:04:27.798Z,100105.84
2023-02-27T15:06:59.402Z,100116.16
2023-02-27T15:09:42.830Z,100163.50
2023-02-27T15:12:17.916Z,100152.13
2023-02-27T15:14:51.474Z,100130.31
2023-02-27T15:17:22.350Z,100139.88
2023-02-27T15:19:55.896Z,100148.66
2023-02-27T15:22:38.544Z,100164.00
2023-02-27T15:25:29.447Z,100164.91
2023-02-27T15:28:02.691Z,100140.75
2023-02-27T15:30:36.971Z,100170.53
2023-02-27T15:33:06.701Z,100154.25
2023-02-27T15:35:46.105Z,100142.75
2023-02-27T15:38:28.632Z,100134.91
2023-02-27T15:40:59.161Z,100167.44
2023-02-27T15:43:29.961Z,100161.53
2023-02-27T15:45:59.948Z,100161.13
2023-02-27T15:48:29.637Z,100170.66
2023-02-27T15:51:04.044Z,100186.06
2023-02-27T15:53:34.289Z,100178.38
2023-02-27T15:56:07.217Z,100167.44
2023-02-27T15:58:39.462Z,100184.06
2023-02-27T16:01:11.255Z,100153.00
2023-02-27T16:03:42.208Z,100174.22
2023-02-27T16:06:28.291Z,100182.63
2023-02-27T16:09:00.182Z,100189.38
2023-02-27T16:11:37.092Z,100177.69
2023-02-27T16:14:08.121Z,100195.22
2023-02-27T16:16:38.836Z,100156.44
2023-02-27T16:19:24.280Z,100222.72
2023-02-27T16:22:08.383Z,100213.97
2023-02-27T16:24:37.589Z,100184.69
2023-02-27T16:27:07.387Z,100227.88
2023-02-27T16:29:43.095Z,100245.56
2023-02-27T16:32:23.975Z,100218.13
2023-02-27T16:35:01.266Z,100213.63
2023-02-27T16:37:39.077Z,100240.50
2023-02-27T16:40:16.515Z,100228.97
2023-02-27T16:42:51.634Z,100237.19
2023-02-27T16:45:27.886Z,100232.06
2023-02-27T16:47:59.573Z,100243.13
2023-02-27T16:50:32.287Z,100239.25
2023-02-27T16:53:03.703Z,100256.72
2023-02-27T16:55:43.095Z,100263.59
2023-02-27T16:58:15.698Z,100275.47
2023-02-27T17:00:45.285Z,100271.28
2023-02-27T17:03:14.435Z,100273.91
2023-02-27T17:05:44.791Z,100246.22
2023-02-27T17:08:16.323Z,100272.53
2023-02-27T17:10:45.558Z,100267.25
2023-02-27T17:13:14.955Z,100249.94
2023-02-27T17:15:44.666Z,100257.13
2023-02-27T17:18:14.452Z,100271.84
2023-02-27T17:20:50.947Z,100252.06
2023-02-27T17:23:22.582Z,100257.44
2023-02-27T17:25:53.688Z,100257.75
2023-02-27T17:28:23.687Z,100241.38
2023-02-27T17:30:54.478Z,100249.75
2023-02-27T17:33:28.916Z,100295.22
2023-02-27T17:36:03.956Z,100299.50
2023-02-27T17:38:35.297Z,100292.69
2023-02-27T17:41:13.992Z,100296.88
2023-02-27T17:43:43.658Z,100276.06
2023-02-27T17:46:14.281Z,100303.75
2023-02-27T17:48:45.060Z,100288.56
2023-02-27T17:51:16.326Z,100299.97
2023-02-27T17:53:47.632Z,100295.69
2023-02-27T17:56:17.017Z,100316.09
2023-02-27T17:58:46.508Z,100312.41
2023-02-27T18:01:21.019Z,100303.97
2023-02-27T18:03:50.808Z,100313.38
2023-02-27T18:06:20.745Z,100303.34
2023-02-27T18:08:52.103Z,100312.06
2023-02-27T18:11:23.458Z,100324.78
2023-02-27T18:13:52.833Z,100300.41
2023-02-27T18:16:23.704Z,100306.84
2023-02-27T18:18:52.882Z,100310.00
2023-02-27T18:24:01.053Z,100316.63
2023-02-27T18:26:32.189Z,100316.78
2023-02-27T18:29:02.855Z,100329.03
2023-02-27T18:31:34.215Z,100303.75
2023-02-27T18:34:03.958Z,100285.03
2023-02-27T18:36:33.700Z,100316.91
2023-02-27T18:39:10.344Z,100293.50
2023-02-27T18:41:39.960Z,100322.25
2023-02-27T18:44:10.161Z,100320.31
2023-02-27T18:46:40.380Z,100311.50
2023-02-27T18:49:10.868Z,100322.13
2023-02-27T18:51:46.105Z,100314.72
2023-02-27T18:54:17.354Z,100318.63
2023-02-27T18:56:48.120Z,100308.88
2023-02-27T18:59:17.313Z,100277.47
2023-02-27T19:01:46.424Z,100316.44
2023-02-27T19:04:20.651Z,100303.81
2023-02-27T19:06:49.832Z,100291.22
2023-02-27T19:09:26.795Z,100311.06
2023-02-27T19:11:56.681Z,100297.75
2023-02-27T19:14:26.699Z,100320.19
2023-02-27T19:16:56.440Z,100329.53
2023-02-27T19:19:27.835Z,100324.13
2023-02-27T19:22:02.086Z,100296.56
2023-02-27T19:24:33.258Z,100333.81
2023-02-27T19:27:02.456Z,100328.94
2023-02-27T19:29:32.024Z,100338.31
2023-02-27T19:32:01.628Z,100316.28
2023-02-27T19:34:35.936Z,100331.16
2023-02-27T19:37:05.175Z,100326.59
2023-02-27T19:39:36.209Z,100327.34
2023-02-27T19:42:05.570Z,100332.00
2023-02-27T19:44:34.636Z,100334.78
2023-02-27T19:47:08.902Z,100336.94
2023-02-27T19:49:38.831Z,100337.94
2023-02-27T19:52:10.176Z,100322.53
2023-02-27T19:54:41.837Z,100324.38
2023-02-27T19:57:11.560Z,100331.53
2023-02-27T19:59:40.608Z,100324.34
2023-02-27T20:02:10.194Z,100320.97
2023-02-27T20:04:39.490Z,100316.53
2023-02-27T20:07:13.781Z,100315.09
2023-02-27T20:09:45.029Z,100318.97
2023-02-27T20:12:14.429Z,100310.53
2023-02-27T20:14:44.210Z,100302.28
2023-02-27T20:17:13.540Z,100314.31
2023-02-27T20:19:42.697Z,100290.28
2023-02-27T20:22:13.057Z,100308.19
2023-02-27T20:24:44.324Z,100299.28
2023-02-27T20:27:15.536Z,100266.22
2023-02-27T20:29:44.936Z,100327.56
2023-02-27T20:32:14.696Z,100333.78
2023-02-27T20:34:44.784Z,100313.91
2023-02-27T20:37:14.094Z,100336.78
2023-02-27T20:39:48.355Z,100341.03
2023-02-27T20:42:19.811Z,100345.19
2023-02-27T20:44:51.188Z,100320.28
2023-02-27T20:47:20.438Z,100324.38
2023-02-27T20:49:49.906Z,100333.66
2023-02-27T20:52:19.214Z,100332.13
2023-02-27T20:54:53.289Z,100318.94
2023-02-27T20:57:24.535Z,100327.66
2023-02-27T20:59:54.107Z,100330.66
2023-02-27T21:02:28.440Z,100324.84
2023-02-27T21:07:42.904Z,100336.63
2023-02-27T21:10:18.942Z,100298.94
2023-02-27T21:12:50.168Z,100326.50
2023-02-27T21:15:19.631Z,100325.03
2023-02-27T21:20:24.831Z,100325.94
2023-02-27T21:22:55.295Z,100336.59
2023-02-27T21:25:25.256Z,100322.91
2023-02-27T21:28:01.739Z,100343.72
2023-02-27T21:30:31.274Z,100340.91
2023-02-27T21:33:03.331Z,100340.50
2023-02-27T21:35:33.701Z,100345.00
2023-02-27T21:38:03.382Z,100340.66
2023-02-27T21:40:32.588Z,100330.41
2023-02-27T21:43:08.633Z,100327.59
2023-02-27T21:45:41.515Z,100323.28
2023-02-27T21:48:11.482Z,100333.66
2023-02-27T21:50:40.681Z,100337.03
2023-02-27T21:53:09.973Z,100331.06
2023-02-27T21:55:39.142Z,100328.41
2023-02-27T21:58:11.208Z,100302.19
2023-02-27T22:00:42.811Z,100317.69
2023-02-27T22:03:11.902Z,100318.69
2023-02-27T22:05:42.517Z,100296.25
2023-02-27T22:08:12.203Z,100314.88
2023-02-27T22:10:45.322Z,100299.38
2023-02-27T22:13:17.806Z,100300.44
2023-02-27T22:15:46.848Z,100298.72
2023-02-27T22:18:15.956Z,100305.38
2023-02-27T22:20:50.228Z,100317.47
2023-02-27T22:23:19.533Z,100305.47
2023-02-27T22:25:48.669Z,100281.47
2023-02-27T22:31:09.621Z,100309.50
2023-02-27T22:33:45.890Z,100317.25
2023-02-27T22:36:16.797Z,100310.00
2023-02-27T22:38:53.898Z,100310.00
2023-02-27T22:41:31.093Z,100299.19
2023-02-27T22:44:03.446Z,100321.16
2023-02-27T22:46:34.638Z,100285.94
2023-02-27T22:49:13.913Z,100314.72
2023-02-27T22:51:43.658Z,100313.97
2023-02-27T22:54:14.391Z,100308.16
2023-02-27T22:56:44.272Z,100325.06
2023-02-27T23:01:51.201Z,100326.81
2023-02-27T23:04:21.717Z,100326.81
2023-02-27T23:06:52.782Z,100313.28
2023-02-27T23:09:24.964Z,100316.34
2023-02-27T23:11:57.495Z,100321.94
2023-02-27T23:14:28.622Z,100302.25
2023-02-27T23:17:02.883Z,100306.41
2023-02-27T23:19:32.705Z,100288.00
2023-02-27T23:22:01.796Z,100295.22
2023-02-27T23:24:31.195Z,100264.28
2023-02-27T23:27:02.416Z,100267.19
2023-02-27T23:29:39.319Z,100288.75
2023-02-27T23:32:08.576Z,100273.44
2023-02-27T23:34:49.083Z,100285.22
2023-02-27T23:39:58.861Z,100290.81
2023-02-27T23:42:27.991Z,100253.97
2023-02-27T23:45:12.241Z,100288.81
2023-02-27T23:47:45.025Z,100278.41
2023-02-27T23:50:14.419Z,100262.31
2023-02-27T23:52:43.516Z,100288.47
2023-02-27T23:55:12.957Z,100262.47
2023-02-27T23:57:42.222Z,100251.59
